Time;durP1;ratioP1;P1;durP2;ratioP2;P2;SDS_P1;SDS_P2;PMS_P1;PMS_P2;Temp;Humidity;BMP_temperature;BMP_pressure;BME280_temperature;BME280_humidity;BME280_pressure;Samples;Min_cycle;Max_cycle;Signal;HPM_P1;HPM_P2
2023/01/30 00:00:25;;;;;;;;;;;;;;;-2.09;70.72;98472.50;4919423;29;20393;-55
2023/01/30 00:02:53;;;;;;;;;;;;;;;-1.99;71.02;98465.66;4925604;29;20289;-55
2023/01/30 00:05:21;;;;;;;;;;;;;;;-2.02;70.80;98457.31;4932768;29;19958;-54
2023/01/30 00:10:43;;;;;;;;;;;;;;;-2.16;70.76;98443.28;4924097;29;20300;-54
2023/01/30 00:13:13;;;;;;;;;;;;;;;-2.14;70.74;98444.69;4921132;29;19931;-55
2023/01/30 00:15:41;;;;;;;;;;;;;;;-2.14;71.20;98433.22;4916870;29;19954;-55
2023/01/30 00:18:34;;;;;;;;;;;;;;;-2.24;71.39;98423.03;4906101;29;19927;-55
2023/01/30 00:21:03;;;;;;;;;;;;;;;-2.07;71.10;98414.56;4917155;29;20030;-55
2023/01/30 00:23:33;;;;;;;;;;;;;;;-2.06;71.10;98409.00;4920602;29;20164;-55
2023/01/30 00:26:01;;;;;;;;;;;;;;;-1.94;70.58;98407.25;4921582;29;19974;-55
2023/01/30 00:28:29;;;;;;;;;;;;;;;-1.96;70.46;98416.50;4932399;29;19926;-55
2023/01/30 00:30:57;;;;;;;;;;;;;;;-2.07;70.78;98403.91;4921124;29;19931;-55
2023/01/30 00:33:26;;;;;;;;;;;;;;;-2.01;70.52;98411.81;4904426;29;20456;-55
2023/01/30 00:35:55;;;;;;;;;;;;;;;-2.02;70.31;98404.06;4919438;29;19934;-54
2023/01/30 00:38:23;;;;;;;;;;;;;;;-1.98;70.54;98421.22;4917929;29;19926;-55
2023/01/30 00:40:53;;;;;;;;;;;;;;;-2.00;70.55;98433.94;4934414;29;19979;-55
2023/01/30 00:52:35;;;;;;;;;;;;;;;-1.71;70.13;98449.25;4920854;29;20408;-54
2023/01/30 00:55:04;;;;;;;;;;;;;;;-1.70;70.24;98461.53;4917806;29;19935;-55
2023/01/30 01:00:25;;;;;;;;;;;;;;;-1.53;69.63;98474.31;4911386;29;19942;-55
2023/01/30 01:02:54;;;;;;;;;;;;;;;-1.48;69.51;98474.47;4929316;29;20017;-56
2023/01/30 01:05:21;;;;;;;;;;;;;;;-1.42;69.15;98474.38;4911171;29;19935;-54
2023/01/30 01:08:15;;;;;;;;;;;;;;;-1.47;69.44;98474.22;4911879;29;19927;-55
2023/01/30 01:10:43;;;;;;;;;;;;;;;-1.42;69.48;98473.56;4933685;29;19934;-55
2023/01/30 01:16:06;;;;;;;;;;;;;;;-1.44;70.74;98468.47;4903272;29;19938;-55
2023/01/30 01:18:35;;;;;;;;;;;;;;;-1.36;70.29;98457.50;4900727;29;20440;-55
2023/01/30 01:21:03;;;;;;;;;;;;;;;-1.36;70.10;98452.19;4909786;29;20407;-54
2023/01/30 01:23:32;;;;;;;;;;;;;;;-1.30;70.39;98453.16;4927626;29;19935;-55
2023/01/30 01:26:01;;;;;;;;;;;;;;;-1.21;70.01;98454.50;4915161;29;19927;-55
2023/01/30 01:28:31;;;;;;;;;;;;;;;-1.13;70.01;98446.19;4902760;29;19927;-55
2023/01/30 01:30:58;;;;;;;;;;;;;;;-1.16;70.12;98451.97;4893112;29;19934;-54
2023/01/30 01:33:27;;;;;;;;;;;;;;;-1.14;70.42;98454.41;4937564;29;19951;-54
2023/01/30 01:35:56;;;;;;;;;;;;;;;-1.15;70.41;98442.94;4943175;29;20006;-55
2023/01/30 01:38:24;;;;;;;;;;;;;;;-1.13;70.42;98445.38;4935548;29;19927;-54
2023/01/30 01:41:05;;;;;;;;;;;;;;;-1.17;70.84;98439.69;4899283;29;19938;-55
2023/01/30 01:43:38;;;;;;;;;;;;;;;-1.13;70.67;98427.50;4920690;29;20061;-54
2023/01/30 01:46:08;;;;;;;;;;;;;;;-1.07;70.34;98417.81;4909304;29;19934;-55
2023/01/30 01:48:37;;;;;;;;;;;;;;;-0.99;70.21;98412.19;4920356;29;19936;-54
2023/01/30 01:51:05;;;;;;;;;;;;;;;-1.01;70.62;98397.44;4908384;29;19927;-55
2023/01/30 01:53:34;;;;;;;;;;;;;;;-1.00;70.43;98386.56;4938540;29;20320;-55
2023/01/30 01:56:02;;;;;;;;;;;;;;;-0.96;70.11;98389.56;4935962;29;19931;-55
2023/01/30 01:58:31;;;;;;;;;;;;;;;-0.88;70.12;98391.94;4912121;29;19935;-55
2023/01/30 02:01:01;;;;;;;;;;;;;;;-0.85;70.28;98388.84;4909269;29;20028;-55
2023/01/30 02:03:30;;;;;;;;;;;;;;;-0.80;70.20;98400.44;4935460;29;19927;-55
2023/01/30 02:05:59;;;;;;;;;;;;;;;-0.81;70.35;98380.13;4920398;29;19945;-55
2023/01/30 02:08:29;;;;;;;;;;;;;;;-0.80;70.52;98371.09;4921127;29;19934;-55
2023/01/30 02:10:58;;;;;;;;;;;;;;;-0.70;70.88;98359.88;4936595;29;20320;-55
2023/01/30 02:13:26;;;;;;;;;;;;;;;-0.69;71.21;98366.84;4895669;29;19935;-55
2023/01/30 02:15:55;;;;;;;;;;;;;;;-0.78;72.00;98360.19;4898929;29;19931;-55
2023/01/30 02:21:27;;;;;;;;;;;;;;;-0.75;72.47;98341.06;4912766;29;19963;-55
2023/01/30 02:24:16;;;;;;;;;;;;;;;-0.68;71.97;98332.97;4931752;29;19927;-55
2023/01/30 02:26:52;;;;;;;;;;;;;;;-0.78;72.27;98341.53;4921776;29;20647;-56
2023/01/30 02:29:41;;;;;;;;;;;;;;;-0.76;72.67;98328.75;4929886;29;19982;-55
2023/01/30 02:32:11;;;;;;;;;;;;;;;-0.64;71.91;98305.59;4913452;29;19934;-55
2023/01/30 02:34:45;;;;;;;;;;;;;;;-0.65;71.72;98287.94;4930469;29;20333;-55
2023/01/30 02:37:16;;;;;;;;;;;;;;;-0.56;71.21;98270.56;4912039;29;19970;-55
2023/01/30 02:39:47;;;;;;;;;;;;;;;-0.53;71.29;98274.66;4930056;29;19935;-55
2023/01/30 02:42:19;;;;;;;;;;;;;;;-0.58;71.36;98270.00;4922359;29;20436;-55
2023/01/30 02:44:50;;;;;;;;;;;;;;;-0.43;70.74;98282.88;4899228;29;19939;-55
2023/01/30 02:47:21;;;;;;;;;;;;;;;-0.48;71.22;98303.28;4900170;29;19928;-55
2023/01/30 02:49:55;;;;;;;;;;;;;;;-0.47;71.21;98289.72;4912880;29;19931;-55
2023/01/30 02:52:25;;;;;;;;;;;;;;;-0.40;71.17;98295.75;4918768;29;19928;-55
2023/01/30 02:54:53;;;;;;;;;;;;;;;-0.37;70.64;98284.63;4906908;29;19935;-55
2023/01/30 02:57:23;;;;;;;;;;;;;;;-0.41;70.80;98282.66;4883110;29;19931;-56
2023/01/30 02:59:57;;;;;;;;;;;;;;;-0.29;70.13;98272.78;4885030;29;19927;-55
2023/01/30 03:02:35;;;;;;;;;;;;;;;-0.22;69.88;98284.16;4909597;29;19993;-55
2023/01/30 03:05:10;;;;;;;;;;;;;;;-0.29;69.95;98280.78;4900133;29;19963;-55
2023/01/30 03:07:41;;;;;;;;;;;;;;;-0.39;70.65;98281.38;4882855;29;19935;-55
2023/01/30 03:10:09;;;;;;;;;;;;;;;-0.21;70.50;98267.09;4900922;29;19927;-56
2023/01/30 03:12:45;;;;;;;;;;;;;;;-0.21;70.58;98250.25;4884547;29;20282;-55
2023/01/30 03:15:16;;;;;;;;;;;;;;;-0.21;70.62;98252.91;4906722;29;19931;-55
2023/01/30 03:17:46;;;;;;;;;;;;;;;-0.20;70.66;98242.03;4884463;29;20373;-55
2023/01/30 03:20:17;;;;;;;;;;;;;;;-0.14;70.74;98229.59;4879006;29;19979;-55
2023/01/30 03:22:46;;;;;;;;;;;;;;;-0.08;70.09;98229.47;4908101;29;19931;-55
2023/01/30 03:25:15;;;;;;;;;;;;;;;-0.10;70.27;98231.56;4891445;29;20025;-55
2023/01/30 03:27:43;;;;;;;;;;;;;;;-0.08;70.19;98213.44;4890497;29;20392;-55
2023/01/30 03:30:12;;;;;;;;;;;;;;;-0.05;70.43;98207.66;4909070;29;20070;-56
2023/01/30 03:32:41;;;;;;;;;;;;;;;-0.19;70.67;98190.25;4886372;29;20393;-55
2023/01/30 03:35:11;;;;;;;;;;;;;;;-0.13;70.71;98197.31;4897447;29;19927;-55
2023/01/30 03:37:39;;;;;;;;;;;;;;;-0.19;70.68;98208.13;4913466;29;20305;-55
2023/01/30 03:40:07;;;;;;;;;;;;;;;-0.16;70.88;98195.13;4875685;29;19928;-55
2023/01/30 03:42:38;;;;;;;;;;;;;;;-0.05;70.37;98196.97;4901205;29;19930;-55
2023/01/30 03:45:06;;;;;;;;;;;;;;;-0.14;70.79;98203.69;4925264;29;19955;-56
2023/01/30 03:47:34;;;;;;;;;;;;;;;-0.09;70.54;98201.13;4918406;29;19935;-56
2023/01/30 03:50:02;;;;;;;;;;;;;;;-0.06;70.45;98210.53;4912741;29;19934;-55
2023/01/30 03:52:32;;;;;;;;;;;;;;;-0.06;70.24;98194.50;4901229;29;20284;-55
2023/01/30 03:55:01;;;;;;;;;;;;;;;-0.10;70.43;98188.84;4936681;29;19933;-55
2023/01/30 03:57:30;;;;;;;;;;;;;;;-0.01;70.24;98192.75;4903470;29;19927;-55
2023/01/30 03:59:59;;;;;;;;;;;;;;;0.02;70.11;98175.44;4912963;29;20349;-54
2023/01/30 04:02:30;;;;;;;;;;;;;;;-0.06;70.20;98176.63;4938445;29;19934;-56
2023/01/30 04:05:00;;;;;;;;;;;;;;;-0.08;70.33;98181.41;4908578;29;19951;-55
2023/01/30 04:07:29;;;;;;;;;;;;;;;0.02;70.34;98191.47;4897110;29;20392;-55
2023/01/30 04:09:58;;;;;;;;;;;;;;;-0.01;70.36;98198.09;4928964;29;19931;-55
2023/01/30 04:12:29;;;;;;;;;;;;;;;0.03;70.19;98197.63;4897158;29;19931;-55
2023/01/30 04:14:59;;;;;;;;;;;;;;;0.02;69.99;98201.34;4904829;29;19928;-55
2023/01/30 04:17:47;;;;;;;;;;;;;;;0.10;70.04;98198.28;4918153;29;20003;-55
2023/01/30 04:20:27;;;;;;;;;;;;;;;0.07;70.10;98196.91;4907528;29;19932;-55
2023/01/30 04:22:56;;;;;;;;;;;;;;;0.07;70.07;98201.47;4929196;29;19957;-54
2023/01/30 04:25:28;;;;;;;;;;;;;;;0.08;70.22;98205.75;4929994;29;19938;-55
2023/01/30 04:27:56;;;;;;;;;;;;;;;0.11;69.98;98205.28;4927583;29;19931;-55
2023/01/30 04:30:29;;;;;;;;;;;;;;;0.19;69.80;98202.22;4920976;29;19927;-62
2023/01/30 04:33:22;;;;;;;;;;;;;;;0.14;69.81;98204.78;4916835;29;19938;-54
2023/01/30 04:35:53;;;;;;;;;;;;;;;0.12;69.83;98194.34;4932568;29;19931;-55
2023/01/30 04:38:22;;;;;;;;;;;;;;;0.16;69.72;98198.19;4915916;29;19978;-55
2023/01/30 04:41:14;;;;;;;;;;;;;;;0.18;69.54;98195.25;4933717;29;20407;-55
2023/01/30 04:43:45;;;;;;;;;;;;;;;0.20;69.62;98193.16;4936114;29;19965;-55
2023/01/30 04:46:45;;;;;;;;;;;;;;;0.13;69.86;98190.63;4881769;29;19933;-55
2023/01/30 04:52:32;;;;;;;;;;;;;;;0.21;69.90;98200.13;4923421;29;19935;-55
2023/01/30 04:55:01;;;;;;;;;;;;;;;0.18;70.09;98189.94;4909832;29;19931;-54
2023/01/30 04:57:29;;;;;;;;;;;;;;;0.17;70.40;98193.66;4935663;29;19927;-55
2023/01/30 04:59:58;;;;;;;;;;;;;;;0.19;70.16;98192.34;4922118;29;20277;-55
2023/01/30 05:02:27;;;;;;;;;;;;;;;0.17;70.63;98182.97;4925201;29;19937;-54
2023/01/30 05:04:55;;;;;;;;;;;;;;;0.13;71.28;98171.13;4898455;29;19947;-55
2023/01/30 05:07:23;;;;;;;;;;;;;;;0.11;72.14;98155.34;4894625;29;20392;-55
2023/01/30 05:09:51;;;;;;;;;;;;;;;0.20;72.19;98143.19;4899585;29;20018;-55
2023/01/30 05:12:19;;;;;;;;;;;;;;;0.15;72.59;98142.28;4893658;29;19927;-54
2023/01/30 05:14:47;;;;;;;;;;;;;;;0.05;73.36;98152.78;4894067;29;19927;-56
2023/01/30 05:17:16;;;;;;;;;;;;;;;0.19;73.06;98149.59;4906115;29;19938;-55
2023/01/30 05:19:47;;;;;;;;;;;;;;;0.26;72.94;98160.13;4907214;29;19997;-55
2023/01/30 05:22:17;;;;;;;;;;;;;;;0.27;73.00;98156.44;4904051;29;20044;-55
2023/01/30 05:24:45;;;;;;;;;;;;;;;0.26;72.96;98149.44;4899540;29;20323;-55
2023/01/30 05:27:13;;;;;;;;;;;;;;;0.27;73.52;98145.75;4898043;29;19935;-55
2023/01/30 05:29:41;;;;;;;;;;;;;;;0.26;73.83;98139.56;4886812;29;19931;-55
2023/01/30 05:32:10;;;;;;;;;;;;;;;0.34;73.86;98145.59;4917030;29;19935;-55
2023/01/30 05:34:39;;;;;;;;;;;;;;;0.38;74.20;98147.56;4905442;29;19927;-56
2023/01/30 05:37:07;;;;;;;;;;;;;;;0.23;74.77;98145.41;4890249;29;21535;-56
2023/01/30 05:39:35;;;;;;;;;;;;;;;0.14;76.01;98156.72;4895568;29;19931;-55
2023/01/30 05:42:07;;;;;;;;;;;;;;;0.22;75.76;98159.00;4900668;29;19931;-55
2023/01/30 05:44:36;;;;;;;;;;;;;;;0.22;76.21;98165.16;4927076;29;19928;-55
2023/01/30 05:47:04;;;;;;;;;;;;;;;0.11;76.78;98158.00;4895607;29;19928;-55
2023/01/30 05:49:57;;;;;;;;;;;;;;;0.15;76.92;98161.81;4895343;29;20365;-55
2023/01/30 05:52:27;;;;;;;;;;;;;;;0.11;77.08;98159.88;4903158;29;19931;-55
2023/01/30 05:57:54;;;;;;;;;;;;;;;0.14;76.90;98156.72;4910900;29;20257;-55
2023/01/30 06:00:22;;;;;;;;;;;;;;;0.19;76.29;98148.78;4889385;29;20609;-55
2023/01/30 06:03:15;;;;;;;;;;;;;;;0.16;76.02;98138.56;4893619;29;19932;-55
2023/01/30 06:05:43;;;;;;;;;;;;;;;0.27;76.08;98121.69;4937316;29;19969;-55
2023/01/30 06:08:12;;;;;;;;;;;;;;;0.28;75.81;98126.00;4893847;29;20342;-55
2023/01/30 06:10:40;;;;;;;;;;;;;;;0.23;76.07;98118.69;4912110;29;19938;-55
2023/01/30 06:13:09;;;;;;;;;;;;;;;0.13;76.77;98117.69;4896488;29;19928;-54
2023/01/30 06:15:37;;;;;;;;;;;;;;;0.23;76.69;98121.38;4887371;29;19927;-54
2023/01/30 06:18:05;;;;;;;;;;;;;;;0.18;77.23;98128.47;4901995;29;19934;-54
2023/01/30 06:21:22;;;;;;;;;;;;;;;0.27;76.35;98129.72;4891642;29;19962;-55
2023/01/30 06:23:53;;;;;;;;;;;;;;;0.19;76.89;98132.75;4896127;29;19959;-54
2023/01/30 06:26:21;;;;;;;;;;;;;;;0.24;75.77;98132.84;4903653;29;20400;-54
2023/01/30 06:28:50;;;;;;;;;;;;;;;0.29;75.60;98134.81;4901557;29;20278;-54
2023/01/30 06:31:21;;;;;;;;;;;;;;;0.23;75.85;98133.91;4901610;29;19947;-53
2023/01/30 06:34:14;;;;;;;;;;;;;;;0.27;75.50;98135.06;4900238;29;19935;-53
2023/01/30 06:36:43;;;;;;;;;;;;;;;0.26;75.27;98128.88;4887568;29;19927;-53
2023/01/30 06:39:12;;;;;;;;;;;;;;;0.27;74.83;98129.72;4930869;29;19927;-53
2023/01/30 06:41:41;;;;;;;;;;;;;;;0.34;74.49;98135.72;4897857;29;19942;-53
2023/01/30 06:44:09;;;;;;;;;;;;;;;0.31;74.44;98138.06;4904850;29;19931;-53
2023/01/30 06:46:37;;;;;;;;;;;;;;;0.45;73.40;98137.53;4897522;29;19935;-53
2023/01/30 06:49:05;;;;;;;;;;;;;;;0.45;73.26;98150.88;4907196;29;19935;-53
2023/01/30 06:51:33;;;;;;;;;;;;;;;0.42;73.38;98147.88;4904333;29;19927;-52
2023/01/30 06:54:06;;;;;;;;;;;;;;;0.48;73.05;98144.22;4891262;29;19934;-53
2023/01/30 06:56:36;;;;;;;;;;;;;;;0.43;73.50;98139.63;4889820;29;19928;-53
2023/01/30 06:59:04;;;;;;;;;;;;;;;0.51;72.94;98141.91;4898049;29;19927;-53
2023/01/30 07:01:32;;;;;;;;;;;;;;;0.59;72.74;98139.91;4903507;29;20048;-53
2023/01/30 07:04:01;;;;;;;;;;;;;;;0.58;72.42;98130.25;4888760;29;19927;-53
2023/01/30 07:06:30;;;;;;;;;;;;;;;0.51;72.77;98133.06;4898211;29;20313;-53
2023/01/30 07:08:58;;;;;;;;;;;;;;;0.44;72.70;98133.22;4879594;29;19974;-53
2023/01/30 07:11:26;;;;;;;;;;;;;;;0.62;72.47;98131.38;4891190;29;20022;-53
2023/01/30 07:13:55;;;;;;;;;;;;;;;0.64;72.40;98121.25;4887944;29;19950;-52
2023/01/30 07:16:27;;;;;;;;;;;;;;;0.60;72.68;98122.81;4883815;29;19950;-52
2023/01/30 07:19:21;;;;;;;;;;;;;;;0.63;72.56;98122.31;4892070;29;19950;-53
2023/01/30 07:21:52;;;;;;;;;;;;;;;0.67;72.31;98118.09;4891837;29;19975;-53
2023/01/30 07:24:21;;;;;;;;;;;;;;;0.68;72.80;98115.19;4892558;29;19951;-52
2023/01/30 07:26:51;;;;;;;;;;;;;;;0.69;72.07;98122.16;4894817;29;19951;-53
2023/01/30 07:29:21;;;;;;;;;;;;;;;0.70;71.89;98117.63;4902189;29;20349;-53
2023/01/30 07:31:49;;;;;;;;;;;;;;;0.61;72.33;98106.50;4889485;29;19932;-53
2023/01/30 07:34:43;;;;;;;;;;;;;;;0.60;71.93;98109.44;4917846;29;19998;-53
2023/01/30 07:37:10;;;;;;;;;;;;;;;0.64;72.86;98102.53;4894538;29;19928;-52
2023/01/30 07:39:38;;;;;;;;;;;;;;;0.57;72.73;98113.38;4894858;29;19934;-53
2023/01/30 07:42:06;;;;;;;;;;;;;;;0.63;73.08;98092.91;4888273;29;20365;-53
2023/01/30 07:44:37;;;;;;;;;;;;;;;0.72;72.18;98108.31;4912888;29;19969;-52
2023/01/30 07:47:04;;;;;;;;;;;;;;;0.76;72.07;98095.25;4922024;29;19926;-52
2023/01/30 07:52:27;;;;;;;;;;;;;;;0.83;71.84;98061.13;4920025;29;19934;-52
2023/01/30 07:54:55;;;;;;;;;;;;;;;0.81;71.04;98057.91;4924357;29;19930;-52
2023/01/30 07:57:28;;;;;;;;;;;;;;;0.84;71.48;98057.41;4926006;29;19935;-52
2023/01/30 07:59:58;;;;;;;;;;;;;;;0.92;71.73;98059.66;4909277;29;19950;-54
2023/01/30 08:02:26;;;;;;;;;;;;;;;0.98;71.54;98063.22;4908324;29;19931;-53
2023/01/30 08:04:56;;;;;;;;;;;;;;;0.97;71.33;98053.59;4913675;29;19928;-53
2023/01/30 08:07:24;;;;;;;;;;;;;;;0.99;71.69;98043.44;4908540;29;19926;-53
2023/01/30 08:09:52;;;;;;;;;;;;;;;0.96;71.36;98052.78;4932193;29;19942;-53
2023/01/30 08:12:20;;;;;;;;;;;;;;;1.00;71.07;98037.03;4950754;29;19927;-52
2023/01/30 08:14:49;;;;;;;;;;;;;;;0.98;70.90;98039.16;4919311;29;19934;-52
2023/01/30 08:17:19;;;;;;;;;;;;;;;1.00;71.19;98045.06;4913479;29;19946;-53
2023/01/30 08:22:41;;;;;;;;;;;;;;;1.04;71.25;98043.50;4919178;29;19931;-52
2023/01/30 08:25:10;;;;;;;;;;;;;;;0.98;71.60;98039.97;4917248;29;19938;-53
2023/01/30 08:27:38;;;;;;;;;;;;;;;0.85;71.65;98034.94;4925491;29;19938;-53
2023/01/30 08:30:07;;;;;;;;;;;;;;;0.90;71.76;98043.03;4922944;29;19934;-53
2023/01/30 08:32:36;;;;;;;;;;;;;;;0.93;71.69;98034.53;4925553;29;20077;-53
2023/01/30 08:37:56;;;;;;;;;;;;;;;0.93;71.86;98031.06;4914665;29;20438;-53
2023/01/30 08:40:24;;;;;;;;;;;;;;;1.03;71.52;98026.66;4937029;29;19927;-54
2023/01/30 08:42:52;;;;;;;;;;;;;;;1.09;71.44;98029.41;4897193;29;19927;-54
2023/01/30 08:45:21;;;;;;;;;;;;;;;1.15;70.65;98023.06;4924575;29;19931;-53
2023/01/30 08:47:50;;;;;;;;;;;;;;;1.13;70.79;98019.84;4917574;29;20145;-53
2023/01/30 08:50:23;;;;;;;;;;;;;;;1.17;71.08;98023.59;4924405;29;19934;-53
2023/01/30 08:52:52;;;;;;;;;;;;;;;1.15;71.57;98018.50;4900370;29;20017;-53
2023/01/30 08:55:20;;;;;;;;;;;;;;;1.12;71.84;98002.13;4925311;29;20388;-53
2023/01/30 08:58:13;;;;;;;;;;;;;;;1.08;72.58;98009.06;4921371;29;19961;-53
2023/01/30 09:00:45;;;;;;;;;;;;;;;0.97;73.55;98019.63;4910769;29;20018;-53
2023/01/30 09:03:19;;;;;;;;;;;;;;;0.97;74.12;98024.16;4920540;29;20288;-53
2023/01/30 09:05:47;;;;;;;;;;;;;;;0.88;75.06;98026.44;4935369;29;20407;-53
2023/01/30 09:08:15;;;;;;;;;;;;;;;0.87;75.89;98026.69;4929333;29;19927;-53
2023/01/30 09:10:44;;;;;;;;;;;;;;;0.81;76.32;98039.19;4920050;29;20288;-53
2023/01/30 09:13:12;;;;;;;;;;;;;;;0.83;76.87;98039.72;4924439;29;19927;-53
2023/01/30 09:15:41;;;;;;;;;;;;;;;0.82;77.19;98035.44;4919393;29;19927;-53
2023/01/30 09:18:09;;;;;;;;;;;;;;;0.79;77.40;98035.94;4925154;29;19927;-53
2023/01/30 09:21:06;;;;;;;;;;;;;;;0.81;77.85;98025.00;4917690;29;19927;-53
2023/01/30 09:23:36;;;;;;;;;;;;;;;0.75;77.98;98026.78;4918758;29;19927;-53
2023/01/30 09:28:57;;;;;;;;;;;;;;;0.73;78.81;98018.19;4907739;29;19927;-53
2023/01/30 09:31:25;;;;;;;;;;;;;;;0.77;78.95;98022.00;4896946;29;19950;-52
2023/01/30 09:33:57;;;;;;;;;;;;;;;0.72;79.17;98027.28;4927185;29;19975;-52
2023/01/30 09:36:27;;;;;;;;;;;;;;;0.77;79.03;98012.09;4912250;29;19927;-53
2023/01/30 09:38:55;;;;;;;;;;;;;;;0.83;78.92;97994.28;4945418;29;19934;-53
2023/01/30 09:44:37;;;;;;;;;;;;;;;0.95;77.65;98007.53;4913937;29;19927;-53
2023/01/30 09:47:06;;;;;;;;;;;;;;;0.90;77.76;97999.44;4904285;29;19927;-53
2023/01/30 09:52:56;;;;;;;;;;;;;;;0.97;77.11;98005.44;4915779;29;20356;-52
2023/01/30 09:55:25;;;;;;;;;;;;;;;0.96;77.62;97999.28;4922392;29;19927;-53
2023/01/30 10:00:47;;;;;;;;;;;;;;;0.99;76.87;97993.41;4909789;29;20301;-53
2023/01/30 10:03:17;;;;;;;;;;;;;;;1.04;76.58;97979.31;4913958;29;19927;-53
2023/01/30 10:05:46;;;;;;;;;;;;;;;1.05;76.24;97981.72;4923716;29;19935;-53
2023/01/30 10:08:24;;;;;;;;;;;;;;;1.07;76.11;97978.81;4937304;29;19927;-53
2023/01/30 10:10:54;;;;;;;;;;;;;;;1.10;75.93;97966.78;4946854;28;19927;-53
2023/01/30 10:13:47;;;;;;;;;;;;;;;1.12;75.80;97976.22;4918754;29;20707;-53
2023/01/30 10:16:17;;;;;;;;;;;;;;;1.14;75.81;97967.94;4919934;29;19927;-53
2023/01/30 10:19:09;;;;;;;;;;;;;;;1.15;76.12;97961.50;4921731;29;19927;-53
2023/01/30 10:22:02;;;;;;;;;;;;;;;1.18;75.37;97961.03;4914372;29;19987;-53
2023/01/30 10:24:40;;;;;;;;;;;;;;;1.20;75.10;97964.25;4927910;29;19937;-53
2023/01/30 10:27:12;;;;;;;;;;;;;;;1.24;75.13;97973.41;4927590;29;19935;-53
2023/01/30 10:29:41;;;;;;;;;;;;;;;1.27;75.13;97978.25;4931802;29;20391;-54
2023/01/30 10:32:10;;;;;;;;;;;;;;;1.40;74.92;97967.16;4925731;29;19939;-53
2023/01/30 10:34:39;;;;;;;;;;;;;;;1.44;74.41;97954.91;4933458;29;19934;-53
2023/01/30 10:37:08;;;;;;;;;;;;;;;1.37;74.82;97948.91;4929332;29;20405;-53
2023/01/30 10:39:39;;;;;;;;;;;;;;;1.38;74.50;97947.06;4917260;29;19950;-53
2023/01/30 10:42:23;;;;;;;;;;;;;;;1.40;74.81;97948.44;4919458;29;19983;-53
2023/01/30 10:44:52;;;;;;;;;;;;;;;1.47;74.92;97940.19;4917698;29;19994;-53
2023/01/30 10:47:26;;;;;;;;;;;;;;;1.49;74.57;97970.19;4912616;29;19935;-53
2023/01/30 10:50:21;;;;;;;;;;;;;;;1.53;74.33;97953.38;4913284;29;19927;-53
2023/01/30 10:53:14;;;;;;;;;;;;;;;1.52;74.07;97949.09;4916953;29;19982;-53
2023/01/30 10:55:44;;;;;;;;;;;;;;;1.56;74.37;97950.22;4888300;29;19928;-53
2023/01/30 10:58:15;;;;;;;;;;;;;;;1.60;73.95;97957.72;4915201;29;20364;-53
2023/01/30 11:00:44;;;;;;;;;;;;;;;1.54;74.40;97957.66;4907884;29;19927;-53
2023/01/30 11:03:16;;;;;;;;;;;;;;;1.53;74.68;97949.91;4913477;29;19942;-53
2023/01/30 11:05:45;;;;;;;;;;;;;;;1.47;74.88;97943.69;4914672;29;19931;-53
2023/01/30 11:08:18;;;;;;;;;;;;;;;1.62;74.47;97942.22;4905468;29;19934;-53
2023/01/30 11:10:46;;;;;;;;;;;;;;;1.67;74.28;97932.38;4917310;29;19927;-53
2023/01/30 11:13:16;;;;;;;;;;;;;;;1.69;74.39;97926.75;4911285;29;19931;-54
2023/01/30 11:15:46;;;;;;;;;;;;;;;1.66;74.71;97932.63;4907924;29;19998;-53
2023/01/30 11:18:40;;;;;;;;;;;;;;;1.65;74.58;97926.47;4918092;29;20017;-53
2023/01/30 11:21:29;;;;;;;;;;;;;;;1.64;74.77;97929.38;4918180;29;20553;-52
2023/01/30 11:24:15;;;;;;;;;;;;;;;1.76;74.58;97928.19;4924839;29;19934;-53
2023/01/30 11:26:44;;;;;;;;;;;;;;;1.69;74.58;97932.13;4922682;29;19931;-53
2023/01/30 11:29:17;;;;;;;;;;;;;;;1.70;75.23;97923.00;4913568;29;19962;-53
2023/01/30 11:31:49;;;;;;;;;;;;;;;1.68;75.25;97935.84;4904737;29;19931;-53
2023/01/30 11:34:19;;;;;;;;;;;;;;;1.73;75.24;97925.19;4923429;29;20407;-53
2023/01/30 11:36:47;;;;;;;;;;;;;;;1.70;75.52;97934.53;4914459;29;19927;-53
2023/01/30 11:39:21;;;;;;;;;;;;;;;1.79;75.19;97932.22;4911902;29;19979;-53
2023/01/30 11:41:57;;;;;;;;;;;;;;;1.74;74.85;97926.81;4916119;29;19934;-53
2023/01/30 11:44:28;;;;;;;;;;;;;;;1.80;75.29;97923.09;4903167;29;19927;-53
2023/01/30 11:46:58;;;;;;;;;;;;;;;1.80;75.30;97920.44;4909213;29;19927;-53
2023/01/30 11:49:53;;;;;;;;;;;;;;;1.80;75.39;97921.25;4909327;29;19927;-53
2023/01/30 11:52:55;;;;;;;;;;;;;;;1.83;75.73;97919.94;4923111;29;19938;-53
2023/01/30 11:55:23;;;;;;;;;;;;;;;1.78;76.26;97925.25;4930824;29;19927;-53
2023/01/30 11:58:16;;;;;;;;;;;;;;;1.77;76.68;97910.25;4929395;29;20309;-53
2023/01/30 12:00:46;;;;;;;;;;;;;;;1.65;77.24;97918.44;4906147;29;19934;-53
2023/01/30 12:03:15;;;;;;;;;;;;;;;1.76;77.12;97927.38;4897669;29;19951;-53
2023/01/30 12:05:44;;;;;;;;;;;;;;;1.85;76.83;97928.50;4923726;29;19982;-52
2023/01/30 12:08:25;;;;;;;;;;;;;;;1.77;76.81;97935.16;4926357;29;19931;-53
2023/01/30 12:11:23;;;;;;;;;;;;;;;1.82;76.41;97919.13;4931620;29;19927;-53
2023/01/30 12:13:51;;;;;;;;;;;;;;;1.85;76.69;97925.84;4899541;29;19939;-52
2023/01/30 12:16:21;;;;;;;;;;;;;;;1.88;76.72;97936.06;4909800;29;20403;-53
2023/01/30 12:18:52;;;;;;;;;;;;;;;1.93;76.01;97944.13;4905840;29;19938;-53
2023/01/30 12:21:28;;;;;;;;;;;;;;;2.02;75.67;97928.38;4915570;29;19954;-52
2023/01/30 12:23:57;;;;;;;;;;;;;;;2.12;75.37;97916.94;4911745;29;19976;-52
2023/01/30 12:26:27;;;;;;;;;;;;;;;2.12;75.51;97927.66;4919763;29;20288;-53
2023/01/30 12:28:56;;;;;;;;;;;;;;;2.16;75.93;97912.69;4919519;29;19927;-53
2023/01/30 12:31:27;;;;;;;;;;;;;;;2.17;76.17;97925.84;4910618;29;20292;-53
2023/01/30 12:33:59;;;;;;;;;;;;;;;2.19;75.59;97904.97;4927836;29;20049;-53
2023/01/30 12:36:30;;;;;;;;;;;;;;;2.20;75.69;97903.09;4929940;29;19934;-53
2023/01/30 12:39:05;;;;;;;;;;;;;;;2.19;75.88;97904.97;4914202;29;20365;-53
2023/01/30 12:41:39;;;;;;;;;;;;;;;2.20;75.92;97906.56;4922535;29;19954;-52
2023/01/30 12:44:12;;;;;;;;;;;;;;;2.12;76.11;97911.59;4917235;29;20349;-52
2023/01/30 12:46:45;;;;;;;;;;;;;;;2.07;75.85;97901.63;4907334;29;19931;-52
2023/01/30 12:52:42;;;;;;;;;;;;;;;2.15;76.08;97911.88;4918711;29;20016;-52
2023/01/30 12:55:18;;;;;;;;;;;;;;;2.23;76.05;97924.81;4914285;29;19928;-53
2023/01/30 12:57:48;;;;;;;;;;;;;;;2.37;75.80;97941.25;4913244;29;19927;-53
2023/01/30 13:00:44;;;;;;;;;;;;;;;2.40;75.23;97937.25;4910646;29;19978;-52
2023/01/30 13:03:25;;;;;;;;;;;;;;;2.33;75.37;97926.75;4903522;29;19938;-52
2023/01/30 13:05:56;;;;;;;;;;;;;;;2.32;75.23;97927.81;4904259;29;19935;-53
2023/01/30 13:08:50;;;;;;;;;;;;;;;2.36;75.59;97920.88;4916342;29;19927;-53
2023/01/30 13:11:27;;;;;;;;;;;;;;;2.34;74.89;97923.84;4923773;29;19934;-53
2023/01/30 13:13:57;;;;;;;;;;;;;;;2.40;74.53;97913.94;4919367;29;19950;-52
2023/01/30 13:16:26;;;;;;;;;;;;;;;2.44;74.79;97906.97;4928195;29;19934;-53
2023/01/30 13:18:57;;;;;;;;;;;;;;;2.56;74.36;97898.78;4926123;29;19927;-53
2023/01/30 13:21:29;;;;;;;;;;;;;;;2.59;74.18;97899.03;4922168;29;19934;-52
2023/01/30 13:24:02;;;;;;;;;;;;;;;2.59;73.94;97915.13;4913649;29;20291;-53
2023/01/30 13:26:33;;;;;;;;;;;;;;;2.59;73.66;97930.41;4932844;29;19927;-52
2023/01/30 13:29:05;;;;;;;;;;;;;;;2.54;73.75;97917.78;4932374;29;19927;-52
2023/01/30 13:31:35;;;;;;;;;;;;;;;2.55;74.55;97945.41;4916288;29;19931;-52
2023/01/30 13:34:06;;;;;;;;;;;;;;;2.58;73.71;97912.72;4922481;29;19934;-52
2023/01/30 13:36:37;;;;;;;;;;;;;;;2.58;73.75;97924.25;4928160;29;19927;-52
2023/01/30 13:39:06;;;;;;;;;;;;;;;2.68;73.84;97923.50;4909006;29;19976;-52
2023/01/30 13:41:36;;;;;;;;;;;;;;;2.63;73.54;97913.53;4911519;29;20323;-53
2023/01/30 13:44:06;;;;;;;;;;;;;;;2.60;73.35;97927.47;4916622;29;19961;-52
2023/01/30 13:46:34;;;;;;;;;;;;;;;2.64;73.88;97922.41;4915360;29;19961;-53
2023/01/30 13:52:50;;;;;;;;;;;;;;;2.69;73.76;97927.00;4923426;29;19938;-52
2023/01/30 13:55:24;;;;;;;;;;;;;;;2.72;73.72;97916.56;4923336;29;20298;-54
2023/01/30 13:58:29;;;;;;;;;;;;;;;2.72;73.20;97902.34;4930486;29;19985;-53
2023/01/30 14:00:59;;;;;;;;;;;;;;;2.73;73.78;97896.72;4916864;29;19953;-55
2023/01/30 14:03:30;;;;;;;;;;;;;;;2.77;73.01;97888.91;4926314;29;19938;-53
2023/01/30 14:06:17;;;;;;;;;;;;;;;2.65;73.37;97893.69;4930873;29;20308;-53
2023/01/30 14:08:52;;;;;;;;;;;;;;;2.64;73.19;97884.84;4923499;29;19942;-53
2023/01/30 14:11:29;;;;;;;;;;;;;;;2.70;73.03;97901.78;4927819;29;20271;-52
2023/01/30 14:14:02;;;;;;;;;;;;;;;2.71;73.33;97903.38;4923215;29;19940;-53
2023/01/30 14:16:42;;;;;;;;;;;;;;;2.65;73.52;97913.28;4917284;29;19961;-53